sensor_id;sensor_type;location;lat;lon;timestamp;P1;durP1;ratioP1;P2;durP2;ratioP2
25715;SDS011;13573;50.936;4.328;2022-10-31T00:01:09;24.17;;;10.77;;
25715;SDS011;13573;50.936;4.328;2022-10-31T00:03:36;15.93;;;10.77;;
25715;SDS011;13573;50.936;4.328;2022-10-31T00:06:03;21.17;;;10.63;;
25715;SDS011;13573;50.936;4.328;2022-10-31T00:08:29;19.13;;;10.10;;
25715;SDS011;13573;50.936;4.328;2022-10-31T00:10:56;18.93;;;10.30;;
25715;SDS011;13573;50.936;4.328;2022-10-31T00:13:22;17.67;;;9.83;;
25715;SDS011;13573;50.936;4.328;2022-10-31T00:15:49;19.87;;;9.40;;
25715;SDS011;13573;50.936;4.328;2022-10-31T00:18:16;17.57;;;10.60;;
25715;SDS011;13573;50.936;4.328;2022-10-31T00:20:42;15.37;;;9.00;;
25715;SDS011;13573;50.936;4.328;2022-10-31T00:23:09;16.60;;;9.40;;
25715;SDS011;13573;50.936;4.328;2022-10-31T00:25:38;18.70;;;9.40;;
25715;SDS011;13573;50.936;4.328;2022-10-31T00:28:05;21.17;;;10.57;;
25715;SDS011;13573;50.936;4.328;2022-10-31T00:30:33;23.83;;;11.73;;
25715;SDS011;13573;50.936;4.328;2022-10-31T00:33:02;20.20;;;10.77;;
25715;SDS011;13573;50.936;4.328;2022-10-31T00:35:28;19.63;;;10.23;;
25715;SDS011;13573;50.936;4.328;2022-10-31T00:37:55;18.03;;;10.47;;
25715;SDS011;13573;50.936;4.328;2022-10-31T00:40:21;23.03;;;12.47;;
25715;SDS011;13573;50.936;4.328;2022-10-31T00:42:48;21.60;;;11.63;;
25715;SDS011;13573;50.936;4.328;2022-10-31T00:45:15;17.27;;;9.80;;
25715;SDS011;13573;50.936;4.328;2022-10-31T00:47:41;19.23;;;10.33;;
25715;SDS011;13573;50.936;4.328;2022-10-31T00:50:08;18.47;;;10.30;;
25715;SDS011;13573;50.936;4.328;2022-10-31T00:52:35;19.07;;;10.57;;
25715;SDS011;13573;50.936;4.328;2022-10-31T00:55:01;17.03;;;10.73;;
25715;SDS011;13573;50.936;4.328;2022-10-31T00:57:28;22.40;;;10.67;;
25715;SDS011;13573;50.936;4.328;2022-10-31T00:59:55;17.73;;;10.20;;
25715;SDS011;13573;50.936;4.328;2022-10-31T01:02:21;27.73;;;11.60;;
25715;SDS011;13573;50.936;4.328;2022-10-31T01:04:48;20.83;;;10.53;;
25715;SDS011;13573;50.936;4.328;2022-10-31T01:07:15;18.43;;;10.03;;
25715;SDS011;13573;50.936;4.328;2022-10-31T01:09:42;19.97;;;10.30;;
25715;SDS011;13573;50.936;4.328;2022-10-31T01:12:08;18.17;;;10.93;;
25715;SDS011;13573;50.936;4.328;2022-10-31T01:14:35;17.93;;;10.30;;
25715;SDS011;13573;50.936;4.328;2022-10-31T01:17:01;19.07;;;11.07;;
25715;SDS011;13573;50.936;4.328;2022-10-31T01:19:28;21.47;;;11.33;;
25715;SDS011;13573;50.936;4.328;2022-10-31T01:21:55;22.57;;;11.13;;
25715;SDS011;13573;50.936;4.328;2022-10-31T01:24:22;20.23;;;10.90;;
25715;SDS011;13573;50.936;4.328;2022-10-31T01:26:49;22.07;;;11.13;;
25715;SDS011;13573;50.936;4.328;2022-10-31T01:29:15;24.07;;;12.33;;
25715;SDS011;13573;50.936;4.328;2022-10-31T01:31:41;18.77;;;10.27;;
25715;SDS011;13573;50.936;4.328;2022-10-31T01:34:10;21.97;;;11.67;;
25715;SDS011;13573;50.936;4.328;2022-10-31T01:36:39;22.07;;;11.17;;
25715;SDS011;13573;50.936;4.328;2022-10-31T01:39:08;19.97;;;10.30;;
25715;SDS011;13573;50.936;4.328;2022-10-31T01:41:39;20.20;;;11.00;;
25715;SDS011;13573;50.936;4.328;2022-10-31T01:47:13;19.47;;;11.23;;
25715;SDS011;13573;50.936;4.328;2022-10-31T01:49:46;19.33;;;11.50;;
25715;SDS011;13573;50.936;4.328;2022-10-31T01:52:20;21.27;;;10.70;;
25715;SDS011;13573;50.936;4.328;2022-10-31T01:54:52;15.13;;;9.73;;
25715;SDS011;13573;50.936;4.328;2022-10-31T01:57:20;16.57;;;10.17;;
25715;SDS011;13573;50.936;4.328;2022-10-31T01:59:47;21.73;;;11.13;;
25715;SDS011;13573;50.936;4.328;2022-10-31T02:02:17;21.80;;;10.43;;
25715;SDS011;13573;50.936;4.328;2022-10-31T02:04:45;21.03;;;10.47;;
25715;SDS011;13573;50.936;4.328;2022-10-31T02:07:14;18.60;;;10.20;;
25715;SDS011;13573;50.936;4.328;2022-10-31T02:09:45;19.27;;;10.10;;
25715;SDS011;13573;50.936;4.328;2022-10-31T02:12:11;20.50;;;9.77;;
25715;SDS011;13573;50.936;4.328;2022-10-31T02:14:39;14.47;;;9.50;;
25715;SDS011;13573;50.936;4.328;2022-10-31T02:17:06;18.23;;;9.70;;
25715;SDS011;13573;50.936;4.328;2022-10-31T02:19:35;21.17;;;9.73;;
25715;SDS011;13573;50.936;4.328;2022-10-31T02:22:11;21.23;;;9.90;;
25715;SDS011;13573;50.936;4.328;2022-10-31T02:24:44;21.77;;;11.33;;
25715;SDS011;13573;50.936;4.328;2022-10-31T02:27:18;24.87;;;11.97;;
25715;SDS011;13573;50.936;4.328;2022-10-31T02:30:01;17.17;;;9.53;;
25715;SDS011;13573;50.936;4.328;2022-10-31T02:32:39;16.87;;;10.37;;
25715;SDS011;13573;50.936;4.328;2022-10-31T02:36:18;21.20;;;10.03;;
25715;SDS011;13573;50.936;4.328;2022-10-31T02:37:58;23.43;;;11.93;;
25715;SDS011;13573;50.936;4.328;2022-10-31T02:40:33;19.43;;;9.60;;
25715;SDS011;13573;50.936;4.328;2022-10-31T02:43:08;18.57;;;10.00;;
25715;SDS011;13573;50.936;4.328;2022-10-31T02:45:40;19.03;;;11.13;;
25715;SDS011;13573;50.936;4.328;2022-10-31T02:48:12;19.33;;;10.20;;
25715;SDS011;13573;50.936;4.328;2022-10-31T02:50:39;20.47;;;9.57;;
25715;SDS011;13573;50.936;4.328;2022-10-31T02:53:09;15.87;;;9.20;;
25715;SDS011;13573;50.936;4.328;2022-10-31T02:55:47;20.50;;;10.23;;
25715;SDS011;13573;50.936;4.328;2022-10-31T02:58:18;18.50;;;10.60;;
25715;SDS011;13573;50.936;4.328;2022-10-31T03:03:44;17.67;;;9.30;;
25715;SDS011;13573;50.936;4.328;2022-10-31T03:06:34;15.00;;;9.90;;
25715;SDS011;13573;50.936;4.328;2022-10-31T03:09:12;20.63;;;10.10;;
25715;SDS011;13573;50.936;4.328;2022-10-31T03:11:42;19.77;;;10.27;;
25715;SDS011;13573;50.936;4.328;2022-10-31T03:14:13;17.63;;;9.90;;
25715;SDS011;13573;50.936;4.328;2022-10-31T03:16:46;19.77;;;11.27;;
25715;SDS011;13573;50.936;4.328;2022-10-31T03:19:20;17.80;;;9.27;;
25715;SDS011;13573;50.936;4.328;2022-10-31T03:21:53;13.23;;;8.70;;
25715;SDS011;13573;50.936;4.328;2022-10-31T03:24:26;17.87;;;10.07;;
25715;SDS011;13573;50.936;4.328;2022-10-31T03:26:54;19.67;;;10.53;;
25715;SDS011;13573;50.936;4.328;2022-10-31T03:29:24;19.67;;;10.30;;
25715;SDS011;13573;50.936;4.328;2022-10-31T03:31:59;15.67;;;9.90;;
25715;SDS011;13573;50.936;4.328;2022-10-31T03:34:36;18.40;;;9.70;;
25715;SDS011;13573;50.936;4.328;2022-10-31T03:37:04;15.90;;;10.40;;
25715;SDS011;13573;50.936;4.328;2022-10-31T03:39:34;18.87;;;10.27;;
25715;SDS011;13573;50.936;4.328;2022-10-31T03:42:05;19.17;;;10.97;;
25715;SDS011;13573;50.936;4.328;2022-10-31T03:44:34;18.27;;;10.87;;
25715;SDS011;13573;50.936;4.328;2022-10-31T03:47:04;21.70;;;11.40;;
25715;SDS011;13573;50.936;4.328;2022-10-31T03:49:31;13.53;;;9.70;;
25715;SDS011;13573;50.936;4.328;2022-10-31T03:52:02;25.97;;;13.10;;
25715;SDS011;13573;50.936;4.328;2022-10-31T03:54:31;26.43;;;13.47;;
25715;SDS011;13573;50.936;4.328;2022-10-31T03:57:03;23.57;;;12.13;;
25715;SDS011;13573;50.936;4.328;2022-10-31T03:59:32;22.47;;;10.80;;
25715;SDS011;13573;50.936;4.328;2022-10-31T04:02:03;25.00;;;13.73;;
25715;SDS011;13573;50.936;4.328;2022-10-31T04:04:30;21.73;;;12.27;;
25715;SDS011;13573;50.936;4.328;2022-10-31T04:06:59;23.77;;;11.87;;
25715;SDS011;13573;50.936;4.328;2022-10-31T04:09:27;20.77;;;10.70;;
25715;SDS011;13573;50.936;4.328;2022-10-31T04:11:54;20.37;;;11.17;;
25715;SDS011;13573;50.936;4.328;2022-10-31T04:14:24;23.50;;;12.97;;
25715;SDS011;13573;50.936;4.328;2022-10-31T04:16:54;24.17;;;12.83;;
25715;SDS011;13573;50.936;4.328;2022-10-31T04:19:20;29.73;;;14.13;;
25715;SDS011;13573;50.936;4.328;2022-10-31T04:21:47;23.70;;;12.57;;
25715;SDS011;13573;50.936;4.328;2022-10-31T04:24:13;21.33;;;12.97;;
25715;SDS011;13573;50.936;4.328;2022-10-31T04:26:40;23.47;;;11.97;;
25715;SDS011;13573;50.936;4.328;2022-10-31T04:29:07;25.93;;;13.83;;
25715;SDS011;13573;50.936;4.328;2022-10-31T04:31:33;28.17;;;12.40;;
25715;SDS011;13573;50.936;4.328;2022-10-31T04:34:00;17.17;;;10.87;;
25715;SDS011;13573;50.936;4.328;2022-10-31T04:36:27;23.33;;;13.17;;
25715;SDS011;13573;50.936;4.328;2022-10-31T04:38:53;21.43;;;11.50;;
25715;SDS011;13573;50.936;4.328;2022-10-31T04:41:20;23.30;;;10.83;;
25715;SDS011;13573;50.936;4.328;2022-10-31T04:43:46;20.00;;;10.87;;
25715;SDS011;13573;50.936;4.328;2022-10-31T04:46:13;23.87;;;11.77;;
25715;SDS011;13573;50.936;4.328;2022-10-31T04:48:40;24.20;;;11.37;;
25715;SDS011;13573;50.936;4.328;2022-10-31T04:51:07;20.40;;;11.13;;
25715;SDS011;13573;50.936;4.328;2022-10-31T04:53:33;16.03;;;9.47;;
25715;SDS011;13573;50.936;4.328;2022-10-31T04:56:00;24.30;;;10.93;;
25715;SDS011;13573;50.936;4.328;2022-10-31T04:58:27;26.40;;;11.13;;
25715;SDS011;13573;50.936;4.328;2022-10-31T05:00:55;22.47;;;10.43;;
25715;SDS011;13573;50.936;4.328;2022-10-31T05:03:21;17.57;;;9.97;;
25715;SDS011;13573;50.936;4.328;2022-10-31T05:05:48;16.00;;;9.93;;
25715;SDS011;13573;50.936;4.328;2022-10-31T05:08:15;18.07;;;10.40;;
25715;SDS011;13573;50.936;4.328;2022-10-31T05:10:42;18.47;;;9.93;;
25715;SDS011;13573;50.936;4.328;2022-10-31T05:13:08;15.27;;;9.63;;
25715;SDS011;13573;50.936;4.328;2022-10-31T05:15:35;18.87;;;10.33;;
25715;SDS011;13573;50.936;4.328;2022-10-31T05:18:01;20.67;;;11.63;;
25715;SDS011;13573;50.936;4.328;2022-10-31T05:20:29;17.63;;;10.40;;
25715;SDS011;13573;50.936;4.328;2022-10-31T05:22:57;18.23;;;10.27;;
25715;SDS011;13573;50.936;4.328;2022-10-31T05:25:24;20.50;;;11.33;;
25715;SDS011;13573;50.936;4.328;2022-10-31T05:27:53;17.53;;;10.13;;
25715;SDS011;13573;50.936;4.328;2022-10-31T05:30:22;19.07;;;10.87;;
25715;SDS011;13573;50.936;4.328;2022-10-31T05:32:49;23.73;;;10.33;;
25715;SDS011;13573;50.936;4.328;2022-10-31T05:35:19;19.47;;;10.97;;
25715;SDS011;13573;50.936;4.328;2022-10-31T05:37:48;22.03;;;11.27;;
25715;SDS011;13573;50.936;4.328;2022-10-31T05:40:15;21.67;;;11.63;;
25715;SDS011;13573;50.936;4.328;2022-10-31T05:42:44;18.67;;;11.03;;
25715;SDS011;13573;50.936;4.328;2022-10-31T05:45:13;17.60;;;10.63;;
25715;SDS011;13573;50.936;4.328;2022-10-31T05:47:40;19.70;;;10.37;;
25715;SDS011;13573;50.936;4.328;2022-10-31T05:50:07;17.80;;;11.23;;
25715;SDS011;13573;50.936;4.328;2022-10-31T05:52:35;22.20;;;11.53;;
25715;SDS011;13573;50.936;4.328;2022-10-31T05:55:02;22.27;;;11.07;;
25715;SDS011;13573;50.936;4.328;2022-10-31T05:57:28;17.40;;;9.83;;
25715;SDS011;13573;50.936;4.328;2022-10-31T05:59:57;21.70;;;11.20;;
25715;SDS011;13573;50.936;4.328;2022-10-31T06:02:24;19.87;;;11.87;;
25715;SDS011;13573;50.936;4.328;2022-10-31T06:04:52;24.80;;;13.13;;
25715;SDS011;13573;50.936;4.328;2022-10-31T06:07:19;22.53;;;10.47;;
25715;SDS011;13573;50.936;4.328;2022-10-31T06:09:45;20.30;;;10.97;;
25715;SDS011;13573;50.936;4.328;2022-10-31T06:12:13;22.80;;;12.63;;
25715;SDS011;13573;50.936;4.328;2022-10-31T06:14:39;22.73;;;12.30;;
25715;SDS011;13573;50.936;4.328;2022-10-31T06:17:06;25.20;;;13.07;;
25715;SDS011;13573;50.936;4.328;2022-10-31T06:19:32;24.10;;;13.13;;
25715;SDS011;13573;50.936;4.328;2022-10-31T06:21:59;21.90;;;12.70;;
25715;SDS011;13573;50.936;4.328;2022-10-31T06:24:25;26.50;;;13.53;;
25715;SDS011;13573;50.936;4.328;2022-10-31T06:26:52;26.30;;;13.37;;
25715;SDS011;13573;50.936;4.328;2022-10-31T06:29:19;28.10;;;15.20;;
25715;SDS011;13573;50.936;4.328;2022-10-31T06:31:46;30.43;;;15.93;;
25715;SDS011;13573;50.936;4.328;2022-10-31T06:34:13;28.30;;;15.47;;
25715;SDS011;13573;50.936;4.328;2022-10-31T06:36:39;20.90;;;13.07;;
25715;SDS011;13573;50.936;4.328;2022-10-31T06:39:06;35.17;;;17.00;;
25715;SDS011;13573;50.936;4.328;2022-10-31T06:41:32;27.53;;;15.07;;
25715;SDS011;13573;50.936;4.328;2022-10-31T06:43:59;29.20;;;14.97;;
25715;SDS011;13573;50.936;4.328;2022-10-31T06:46:25;31.10;;;15.33;;
25715;SDS011;13573;50.936;4.328;2022-10-31T06:48:52;32.70;;;15.20;;
25715;SDS011;13573;50.936;4.328;2022-10-31T06:51:18;22.10;;;13.77;;
25715;SDS011;13573;50.936;4.328;2022-10-31T06:53:45;28.27;;;14.30;;
25715;SDS011;13573;50.936;4.328;2022-10-31T06:56:12;20.67;;;12.40;;
25715;SDS011;13573;50.936;4.328;2022-10-31T06:58:39;22.43;;;12.37;;
25715;SDS011;13573;50.936;4.328;2022-10-31T07:01:06;22.63;;;12.63;;
25715;SDS011;13573;50.936;4.328;2022-10-31T07:03:32;26.67;;;13.63;;
25715;SDS011;13573;50.936;4.328;2022-10-31T07:05:59;28.17;;;14.17;;
25715;SDS011;13573;50.936;4.328;2022-10-31T07:08:25;26.93;;;12.37;;
25715;SDS011;13573;50.936;4.328;2022-10-31T07:10:53;30.07;;;14.13;;
25715;SDS011;13573;50.936;4.328;2022-10-31T07:13:21;34.73;;;14.27;;
25715;SDS011;13573;50.936;4.328;2022-10-31T07:15:51;26.70;;;14.90;;
25715;SDS011;13573;50.936;4.328;2022-10-31T07:18:20;28.00;;;14.63;;
25715;SDS011;13573;50.936;4.328;2022-10-31T07:20:48;30.60;;;15.80;;
25715;SDS011;13573;50.936;4.328;2022-10-31T07:23:14;29.67;;;16.07;;
25715;SDS011;13573;50.936;4.328;2022-10-31T07:25:41;30.97;;;16.40;;
25715;SDS011;13573;50.936;4.328;2022-10-31T07:28:08;27.80;;;15.67;;
25715;SDS011;13573;50.936;4.328;2022-10-31T07:30:35;29.70;;;16.77;;
25715;SDS011;13573;50.936;4.328;2022-10-31T07:33:03;26.50;;;15.03;;
25715;SDS011;13573;50.936;4.328;2022-10-31T07:35:30;36.07;;;17.40;;
25715;SDS011;13573;50.936;4.328;2022-10-31T07:37:57;24.73;;;16.03;;
25715;SDS011;13573;50.936;4.328;2022-10-31T07:40:27;29.67;;;14.17;;
25715;SDS011;13573;50.936;4.328;2022-10-31T07:42:53;22.13;;;12.87;;
25715;SDS011;13573;50.936;4.328;2022-10-31T07:45:20;33.27;;;16.37;;
25715;SDS011;13573;50.936;4.328;2022-10-31T07:47:49;31.70;;;16.87;;
25715;SDS011;13573;50.936;4.328;2022-10-31T07:50:16;29.00;;;15.70;;
25715;SDS011;13573;50.936;4.328;2022-10-31T07:52:43;29.00;;;16.27;;
25715;SDS011;13573;50.936;4.328;2022-10-31T07:55:10;26.70;;;14.30;;
25715;SDS011;13573;50.936;4.328;2022-10-31T07:57:37;32.23;;;15.70;;
25715;SDS011;13573;50.936;4.328;2022-10-31T08:00:04;31.33;;;15.10;;
25715;SDS011;13573;50.936;4.328;2022-10-31T08:02:33;27.00;;;14.60;;
25715;SDS011;13573;50.936;4.328;2022-10-31T08:04:59;28.67;;;15.73;;
25715;SDS011;13573;50.936;4.328;2022-10-31T08:07:27;29.73;;;15.37;;
25715;SDS011;13573;50.936;4.328;2022-10-31T08:09:55;27.50;;;16.17;;
25715;SDS011;13573;50.936;4.328;2022-10-31T08:12:22;33.40;;;17.10;;
25715;SDS011;13573;50.936;4.328;2022-10-31T08:14:49;25.27;;;13.90;;
25715;SDS011;13573;50.936;4.328;2022-10-31T08:17:16;23.57;;;14.80;;
25715;SDS011;13573;50.936;4.328;2022-10-31T08:19:42;29.43;;;15.80;;
25715;SDS011;13573;50.936;4.328;2022-10-31T08:22:09;29.17;;;16.07;;
25715;SDS011;13573;50.936;4.328;2022-10-31T08:24:36;26.63;;;15.33;;
25715;SDS011;13573;50.936;4.328;2022-10-31T08:27:02;29.17;;;17.10;;
25715;SDS011;13573;50.936;4.328;2022-10-31T08:29:29;30.37;;;16.67;;
25715;SDS011;13573;50.936;4.328;2022-10-31T08:31:57;31.40;;;16.77;;
25715;SDS011;13573;50.936;4.328;2022-10-31T08:34:24;30.37;;;16.87;;
25715;SDS011;13573;50.936;4.328;2022-10-31T08:36:51;37.27;;;18.87;;
25715;SDS011;13573;50.936;4.328;2022-10-31T08:39:18;32.50;;;16.17;;
25715;SDS011;13573;50.936;4.328;2022-10-31T08:41:45;29.87;;;15.47;;
25715;SDS011;13573;50.936;4.328;2022-10-31T08:44:11;27.87;;;15.77;;
25715;SDS011;13573;50.936;4.328;2022-10-31T08:46:38;36.63;;;19.40;;
25715;SDS011;13573;50.936;4.328;2022-10-31T08:49:04;35.07;;;17.50;;
25715;SDS011;13573;50.936;4.328;2022-10-31T08:51:31;29.00;;;16.37;;
25715;SDS011;13573;50.936;4.328;2022-10-31T08:53:58;33.40;;;17.03;;
25715;SDS011;13573;50.936;4.328;2022-10-31T08:56:24;29.37;;;14.50;;
25715;SDS011;13573;50.936;4.328;2022-10-31T08:58:52;30.23;;;17.00;;
25715;SDS011;13573;50.936;4.328;2022-10-31T09:01:19;30.60;;;16.17;;
25715;SDS011;13573;50.936;4.328;2022-10-31T09:03:46;27.57;;;15.50;;
25715;SDS011;13573;50.936;4.328;2022-10-31T09:06:13;26.07;;;16.23;;
25715;SDS011;13573;50.936;4.328;2022-10-31T09:08:39;29.80;;;14.93;;
25715;SDS011;13573;50.936;4.328;2022-10-31T09:11:06;28.53;;;16.30;;
25715;SDS011;13573;50.936;4.328;2022-10-31T09:13:32;29.83;;;15.87;;
25715;SDS011;13573;50.936;4.328;2022-10-31T09:16:00;28.17;;;15.97;;
25715;SDS011;13573;50.936;4.328;2022-10-31T09:18:26;34.40;;;16.20;;
25715;SDS011;13573;50.936;4.328;2022-10-31T09:20:54;26.87;;;14.90;;
25715;SDS011;13573;50.936;4.328;2022-10-31T09:23:22;29.20;;;15.53;;
25715;SDS011;13573;50.936;4.328;2022-10-31T09:25:50;26.23;;;14.20;;
25715;SDS011;13573;50.936;4.328;2022-10-31T09:28:19;24.10;;;13.90;;
25715;SDS011;13573;50.936;4.328;2022-10-31T09:30:48;25.70;;;13.77;;
25715;SDS011;13573;50.936;4.328;2022-10-31T09:33:17;27.03;;;14.93;;
25715;SDS011;13573;50.936;4.328;2022-10-31T09:35:44;28.27;;;13.80;;
25715;SDS011;13573;50.936;4.328;2022-10-31T09:38:11;27.63;;;15.77;;
25715;SDS011;13573;50.936;4.328;2022-10-31T09:40:43;30.53;;;14.10;;
25715;SDS011;13573;50.936;4.328;2022-10-31T09:46:04;25.37;;;14.37;;
25715;SDS011;13573;50.936;4.328;2022-10-31T09:48:56;27.97;;;15.00;;
25715;SDS011;13573;50.936;4.328;2022-10-31T09:51:23;25.23;;;14.87;;
25715;SDS011;13573;50.936;4.328;2022-10-31T09:53:55;25.17;;;13.93;;
25715;SDS011;13573;50.936;4.328;2022-10-31T09:56:30;20.23;;;12.63;;
25715;SDS011;13573;50.936;4.328;2022-10-31T09:58:58;22.33;;;14.43;;
25715;SDS011;13573;50.936;4.328;2022-10-31T10:02:02;20.37;;;11.50;;
25715;SDS011;13573;50.936;4.328;2022-10-31T10:04:19;18.63;;;11.47;;
25715;SDS011;13573;50.936;4.328;2022-10-31T10:06:49;21.00;;;11.03;;
25715;SDS011;13573;50.936;4.328;2022-10-31T10:09:19;22.37;;;11.30;;
25715;SDS011;13573;50.936;4.328;2022-10-31T10:11:58;24.60;;;11.70;;
25715;SDS011;13573;50.936;4.328;2022-10-31T10:14:41;21.53;;;11.67;;
25715;SDS011;13573;50.936;4.328;2022-10-31T10:17:11;17.23;;;11.33;;
25715;SDS011;13573;50.936;4.328;2022-10-31T10:19:55;20.87;;;11.90;;
25715;SDS011;13573;50.936;4.328;2022-10-31T10:22:28;20.27;;;12.03;;
25715;SDS011;13573;50.936;4.328;2022-10-31T10:24:59;16.80;;;10.97;;
25715;SDS011;13573;50.936;4.328;2022-10-31T10:30:18;22.33;;;12.87;;
25715;SDS011;13573;50.936;4.328;2022-10-31T10:32:50;19.37;;;12.20;;
25715;SDS011;13573;50.936;4.328;2022-10-31T10:35:21;23.80;;;11.57;;
25715;SDS011;13573;50.936;4.328;2022-10-31T10:37:54;23.87;;;13.17;;
25715;SDS011;13573;50.936;4.328;2022-10-31T10:40:24;20.47;;;13.53;;
25715;SDS011;13573;50.936;4.328;2022-10-31T10:42:56;20.17;;;11.50;;
25715;SDS011;13573;50.936;4.328;2022-10-31T10:45:33;21.97;;;12.03;;
25715;SDS011;13573;50.936;4.328;2022-10-31T10:48:14;21.93;;;12.53;;
25715;SDS011;13573;50.936;4.328;2022-10-31T10:50:44;18.50;;;11.70;;
25715;SDS011;13573;50.936;4.328;2022-10-31T10:53:18;21.67;;;12.33;;
25715;SDS011;13573;50.936;4.328;2022-10-31T10:56:06;20.73;;;12.77;;
25715;SDS011;13573;50.936;4.328;2022-10-31T10:58:30;25.97;;;13.17;;
25715;SDS011;13573;50.936;4.328;2022-10-31T11:00:57;25.30;;;14.97;;
25715;SDS011;13573;50.936;4.328;2022-10-31T11:03:24;29.10;;;14.30;;
25715;SDS011;13573;50.936;4.328;2022-10-31T11:05:52;26.73;;;14.53;;
25715;SDS011;13573;50.936;4.328;2022-10-31T11:08:27;26.03;;;15.17;;
25715;SDS011;13573;50.936;4.328;2022-10-31T11:11:30;24.77;;;14.50;;
25715;SDS011;13573;50.936;4.328;2022-10-31T11:13:41;26.13;;;14.00;;
25715;SDS011;13573;50.936;4.328;2022-10-31T11:16:12;24.70;;;13.20;;
25715;SDS011;13573;50.936;4.328;2022-10-31T11:18:41;23.13;;;13.37;;
25715;SDS011;13573;50.936;4.328;2022-10-31T11:21:17;20.90;;;13.53;;
25715;SDS011;13573;50.936;4.328;2022-10-31T11:23:46;27.70;;;14.57;;
25715;SDS011;13573;50.936;4.328;2022-10-31T11:26:19;29.60;;;14.33;;
25715;SDS011;13573;50.936;4.328;2022-10-31T11:28:44;29.87;;;14.80;;
25715;SDS011;13573;50.936;4.328;2022-10-31T11:31:22;30.20;;;14.20;;
25715;SDS011;13573;50.936;4.328;2022-10-31T11:33:53;28.93;;;13.37;;
25715;SDS011;13573;50.936;4.328;2022-10-31T11:36:25;19.93;;;13.50;;
25715;SDS011;13573;50.936;4.328;2022-10-31T11:38:52;19.43;;;12.20;;
25715;SDS011;13573;50.936;4.328;2022-10-31T11:41:23;25.03;;;13.17;;
25715;SDS011;13573;50.936;4.328;2022-10-31T11:43:58;23.70;;;12.97;;
25715;SDS011;13573;50.936;4.328;2022-10-31T11:46:32;24.87;;;12.63;;
25715;SDS011;13573;50.936;4.328;2022-10-31T11:48:56;23.07;;;11.83;;
25715;SDS011;13573;50.936;4.328;2022-10-31T11:51:24;24.37;;;13.07;;
25715;SDS011;13573;50.936;4.328;2022-10-31T11:53:54;28.30;;;13.03;;
25715;SDS011;13573;50.936;4.328;2022-10-31T11:56:24;25.93;;;13.37;;
25715;SDS011;13573;50.936;4.328;2022-10-31T11:58:54;24.83;;;13.53;;
25715;SDS011;13573;50.936;4.328;2022-10-31T12:01:25;20.60;;;13.13;;
25715;SDS011;13573;50.936;4.328;2022-10-31T12:03:57;23.93;;;13.13;;
25715;SDS011;13573;50.936;4.328;2022-10-31T12:06:23;26.83;;;14.47;;
25715;SDS011;13573;50.936;4.328;2022-10-31T12:08:52;24.80;;;12.53;;
25715;SDS011;13573;50.936;4.328;2022-10-31T12:11:27;27.63;;;13.50;;
25715;SDS011;13573;50.936;4.328;2022-10-31T12:17:03;21.03;;;11.53;;
25715;SDS011;13573;50.936;4.328;2022-10-31T12:19:36;19.77;;;11.33;;
25715;SDS011;13573;50.936;4.328;2022-10-31T12:22:12;23.20;;;11.50;;
25715;SDS011;13573;50.936;4.328;2022-10-31T12:24:50;25.63;;;12.37;;
25715;SDS011;13573;50.936;4.328;2022-10-31T12:27:20;18.87;;;11.33;;
25715;SDS011;13573;50.936;4.328;2022-10-31T12:29:57;21.40;;;11.07;;
25715;SDS011;13573;50.936;4.328;2022-10-31T12:32:25;25.87;;;11.03;;
25715;SDS011;13573;50.936;4.328;2022-10-31T12:38:13;19.13;;;10.77;;
25715;SDS011;13573;50.936;4.328;2022-10-31T12:40:47;21.10;;;9.37;;
25715;SDS011;13573;50.936;4.328;2022-10-31T12:43:20;20.60;;;10.23;;
25715;SDS011;13573;50.936;4.328;2022-10-31T12:45:54;21.27;;;9.17;;
25715;SDS011;13573;50.936;4.328;2022-10-31T12:51:03;20.20;;;9.67;;
25715;SDS011;13573;50.936;4.328;2022-10-31T12:53:49;18.07;;;10.10;;
25715;SDS011;13573;50.936;4.328;2022-10-31T12:56:34;22.87;;;10.23;;
25715;SDS011;13573;50.936;4.328;2022-10-31T12:59:01;20.73;;;9.63;;
25715;SDS011;13573;50.936;4.328;2022-10-31T13:01:34;19.77;;;8.83;;
25715;SDS011;13573;50.936;4.328;2022-10-31T13:04:15;14.77;;;8.70;;
25715;SDS011;13573;50.936;4.328;2022-10-31T13:06:52;16.23;;;8.40;;
25715;SDS011;13573;50.936;4.328;2022-10-31T13:09:25;26.00;;;9.10;;
25715;SDS011;13573;50.936;4.328;2022-10-31T13:12:02;21.53;;;8.77;;
25715;SDS011;13573;50.936;4.328;2022-10-31T13:14:34;25.27;;;9.23;;
25715;SDS011;13573;50.936;4.328;2022-10-31T13:17:04;15.40;;;8.07;;
25715;SDS011;13573;50.936;4.328;2022-10-31T13:19:36;18.30;;;8.00;;
25715;SDS011;13573;50.936;4.328;2022-10-31T13:22:23;16.73;;;8.00;;
25715;SDS011;13573;50.936;4.328;2022-10-31T13:24:57;19.43;;;7.83;;
25715;SDS011;13573;50.936;4.328;2022-10-31T13:27:29;19.00;;;7.47;;
25715;SDS011;13573;50.936;4.328;2022-10-31T13:30:01;18.17;;;7.10;;
25715;SDS011;13573;50.936;4.328;2022-10-31T13:32:29;16.83;;;8.30;;
25715;SDS011;13573;50.936;4.328;2022-10-31T13:34:59;21.63;;;8.10;;
25715;SDS011;13573;50.936;4.328;2022-10-31T13:37:29;15.10;;;8.30;;
25715;SDS011;13573;50.936;4.328;2022-10-31T13:40:04;15.50;;;7.97;;
25715;SDS011;13573;50.936;4.328;2022-10-31T13:42:45;20.30;;;8.27;;
25715;SDS011;13573;50.936;4.328;2022-10-31T13:45:14;15.63;;;7.73;;
25715;SDS011;13573;50.936;4.328;2022-10-31T13:47:41;18.33;;;7.93;;
25715;SDS011;13573;50.936;4.328;2022-10-31T13:52:41;18.20;;;7.13;;
25715;SDS011;13573;50.936;4.328;2022-10-31T13:55:19;17.87;;;6.57;;
25715;SDS011;13573;50.936;4.328;2022-10-31T13:57:54;18.87;;;7.40;;
25715;SDS011;13573;50.936;4.328;2022-10-31T14:00:23;20.20;;;7.30;;
25715;SDS011;13573;50.936;4.328;2022-10-31T14:02:53;25.13;;;7.30;;
25715;SDS011;13573;50.936;4.328;2022-10-31T14:05:24;16.40;;;8.17;;
25715;SDS011;13573;50.936;4.328;2022-10-31T14:07:53;14.80;;;7.47;;
25715;SDS011;13573;50.936;4.328;2022-10-31T14:10:25;15.83;;;7.17;;
25715;SDS011;13573;50.936;4.328;2022-10-31T14:13:02;24.73;;;7.97;;
25715;SDS011;13573;50.936;4.328;2022-10-31T14:15:24;14.63;;;6.93;;
25715;SDS011;13573;50.936;4.328;2022-10-31T14:17:52;16.47;;;7.67;;
25715;SDS011;13573;50.936;4.328;2022-10-31T14:20:25;18.73;;;7.63;;
25715;SDS011;13573;50.936;4.328;2022-10-31T14:25:51;17.17;;;8.27;;
25715;SDS011;13573;50.936;4.328;2022-10-31T14:28:20;16.37;;;7.20;;
25715;SDS011;13573;50.936;4.328;2022-10-31T14:30:52;19.60;;;7.47;;
25715;SDS011;13573;50.936;4.328;2022-10-31T14:33:22;21.30;;;7.10;;
25715;SDS011;13573;50.936;4.328;2022-10-31T14:38:37;20.60;;;7.07;;
25715;SDS011;13573;50.936;4.328;2022-10-31T14:41:14;17.53;;;6.43;;
25715;SDS011;13573;50.936;4.328;2022-10-31T14:43:45;16.40;;;6.57;;
25715;SDS011;13573;50.936;4.328;2022-10-31T14:46:30;16.10;;;5.97;;
25715;SDS011;13573;50.936;4.328;2022-10-31T14:50:08;13.87;;;5.87;;
25715;SDS011;13573;50.936;4.328;2022-10-31T14:51:46;17.70;;;6.37;;
25715;SDS011;13573;50.936;4.328;2022-10-31T14:54:15;13.87;;;5.70;;
25715;SDS011;13573;50.936;4.328;2022-10-31T14:56:48;16.60;;;6.10;;
25715;SDS011;13573;50.936;4.328;2022-10-31T14:59:21;14.50;;;5.43;;
25715;SDS011;13573;50.936;4.328;2022-10-31T15:01:58;14.83;;;5.57;;
25715;SDS011;13573;50.936;4.328;2022-10-31T15:04:28;16.40;;;6.00;;
25715;SDS011;13573;50.936;4.328;2022-10-31T15:07:00;17.70;;;5.83;;